createdAt,value
2023-02-09T00:00:50.446Z,-4.04
2023-02-09T00:02:52.058Z,-4.03
2023-02-09T00:04:53.694Z,-4.12
2023-02-09T00:06:55.296Z,-4.09
2023-02-09T00:08:58.408Z,-4.08
2023-02-09T00:11:00.079Z,-4.06
2023-02-09T00:13:20.482Z,-4.08
2023-02-09T00:15:22.200Z,-4.06
2023-02-09T00:17:24.028Z,-4.04
2023-02-09T00:19:25.683Z,-4.03
2023-02-09T00:21:27.237Z,-4.03
2023-02-09T00:23:30.630Z,-4.01
2023-02-09T00:25:32.245Z,-4.04
2023-02-09T00:27:35.852Z,-4.10
2023-02-09T00:29:37.590Z,-4.12
2023-02-09T00:31:39.814Z,-4.14
2023-02-09T00:33:41.609Z,-4.15
2023-02-09T00:35:44.145Z,-4.13
2023-02-09T00:37:45.817Z,-4.14
2023-02-09T00:39:47.578Z,-4.12
2023-02-09T00:42:07.032Z,-4.14
2023-02-09T00:44:12.096Z,-4.15
2023-02-09T00:46:13.773Z,-4.18
2023-02-09T00:48:15.415Z,-4.23
2023-02-09T00:50:17.005Z,-4.29
2023-02-09T00:52:18.589Z,-4.26
2023-02-09T00:54:20.265Z,-4.27
2023-02-09T00:56:21.897Z,-4.36
2023-02-09T00:58:23.569Z,-4.34
2023-02-09T01:00:26.307Z,-4.28
2023-02-09T01:02:27.935Z,-4.30
2023-02-09T01:04:29.793Z,-4.27
2023-02-09T01:06:31.771Z,-4.25
2023-02-09T01:08:33.723Z,-4.31
2023-02-09T01:10:35.494Z,-4.40
2023-02-09T01:12:39.942Z,-4.71
2023-02-09T01:14:41.926Z,-5.41
2023-02-09T01:16:43.700Z,-5.66
2023-02-09T01:18:45.440Z,-5.76
2023-02-09T01:20:47.532Z,-5.72
2023-02-09T01:22:50.559Z,-5.71
2023-02-09T01:24:52.165Z,-5.70
2023-02-09T01:26:53.817Z,-5.54
2023-02-09T01:28:55.694Z,-5.35
2023-02-09T01:30:57.692Z,-5.25
2023-02-09T01:32:59.389Z,-5.13
2023-02-09T01:35:01.146Z,-5.01
2023-02-09T01:37:02.852Z,-4.87
2023-02-09T01:39:05.040Z,-4.82
2023-02-09T01:41:06.694Z,-4.80
2023-02-09T01:43:11.523Z,-4.76
2023-02-09T01:45:38.976Z,-4.77
2023-02-09T01:47:48.634Z,-4.83
2023-02-09T01:49:51.642Z,-4.82
2023-02-09T01:52:16.006Z,-4.84
2023-02-09T01:54:23.074Z,-4.85
2023-02-09T01:56:29.735Z,-4.84
2023-02-09T01:58:31.793Z,-4.76
2023-02-09T02:00:33.497Z,-4.74
2023-02-09T02:02:35.366Z,-4.74
2023-02-09T02:04:38.044Z,-4.72
2023-02-09T02:06:40.362Z,-4.70
2023-02-09T02:08:48.378Z,-4.68
2023-02-09T02:10:51.077Z,-4.65
2023-02-09T02:12:54.499Z,-4.68
2023-02-09T02:14:56.122Z,-4.66
2023-02-09T02:17:24.056Z,-4.77
2023-02-09T02:19:49.931Z,-4.85
2023-02-09T02:22:14.578Z,-4.87
2023-02-09T02:24:25.483Z,-5.22
2023-02-09T02:26:42.457Z,-5.46
2023-02-09T02:29:01.937Z,-5.46
2023-02-09T02:31:28.365Z,-5.57
2023-02-09T02:33:39.279Z,-5.63
2023-02-09T02:35:47.513Z,-5.52
2023-02-09T02:38:02.814Z,-5.47
2023-02-09T02:40:11.107Z,-5.52
2023-02-09T02:42:52.153Z,-5.44
2023-02-09T02:45:01.821Z,-5.53
2023-02-09T02:47:06.770Z,-5.51
2023-02-09T02:49:17.144Z,-5.43
2023-02-09T02:51:31.852Z,-5.40
2023-02-09T02:53:36.016Z,-5.35
2023-02-09T02:55:38.481Z,-5.31
2023-02-09T02:57:43.891Z,-5.32
2023-02-09T02:59:53.130Z,-5.33
2023-02-09T03:01:59.062Z,-5.28
2023-02-09T03:04:01.726Z,-5.29
2023-02-09T03:06:05.910Z,-5.26
2023-02-09T03:08:07.468Z,-5.25
2023-02-09T03:10:30.395Z,-5.25
2023-02-09T03:12:37.919Z,-5.28
2023-02-09T03:14:56.489Z,-5.26
2023-02-09T03:17:12.324Z,-5.21
2023-02-09T03:19:16.775Z,-5.46
2023-02-09T03:21:38.067Z,-5.66
2023-02-09T03:23:48.648Z,-5.63
2023-02-09T03:25:52.557Z,-5.50
2023-02-09T03:27:57.557Z,-5.39
2023-02-09T03:30:01.270Z,-5.30
2023-02-09T03:32:03.070Z,-5.21
2023-02-09T03:34:05.546Z,-5.19
2023-02-09T03:36:12.831Z,-5.26
2023-02-09T03:38:14.467Z,-5.24
2023-02-09T03:40:35.235Z,-5.26
2023-02-09T03:42:36.889Z,-5.17
2023-02-09T03:44:38.461Z,-5.15
2023-02-09T03:46:40.136Z,-5.10
2023-02-09T03:48:41.877Z,-5.19
2023-02-09T03:50:43.785Z,-5.22
2023-02-09T03:52:45.680Z,-5.18
2023-02-09T03:54:47.905Z,-5.26
2023-02-09T03:56:49.652Z,-5.47
2023-02-09T03:58:52.107Z,-5.58
2023-02-09T04:00:53.744Z,-5.76
2023-02-09T04:02:56.408Z,-5.73
2023-02-09T04:04:58.019Z,-5.69
2023-02-09T04:07:00.078Z,-5.72
2023-02-09T04:09:02.737Z,-5.74
2023-02-09T04:11:04.477Z,-5.72
2023-02-09T04:13:06.096Z,-5.67
2023-02-09T04:15:08.027Z,-5.63
2023-02-09T04:17:09.772Z,-5.59
2023-02-09T04:19:12.396Z,-5.52
2023-02-09T04:21:14.368Z,-5.47
2023-02-09T04:23:16.039Z,-5.39
2023-02-09T04:25:17.817Z,-5.30
2023-02-09T04:27:19.381Z,-5.24
2023-02-09T04:29:21.192Z,-5.25
2023-02-09T04:31:23.152Z,-5.22
2023-02-09T04:33:25.264Z,-5.13
2023-02-09T04:35:26.874Z,-5.20
2023-02-09T04:37:28.530Z,-5.16
2023-02-09T04:39:30.318Z,-5.10
2023-02-09T04:41:31.923Z,-5.06
2023-02-09T04:43:33.750Z,-5.08
2023-02-09T04:45:38.406Z,-5.06
2023-02-09T04:47:40.056Z,-5.21
2023-02-09T04:49:42.771Z,-5.29
2023-02-09T04:51:44.380Z,-5.29
2023-02-09T04:53:46.020Z,-5.24
2023-02-09T04:55:48.005Z,-5.37
2023-02-09T04:58:08.137Z,-5.53
2023-02-09T05:00:10.534Z,-5.81
2023-02-09T05:02:12.506Z,-6.01
2023-02-09T05:04:14.068Z,-6.01
2023-02-09T05:06:15.870Z,-5.93
2023-02-09T05:08:17.491Z,-5.88
2023-02-09T05:10:19.243Z,-5.84
2023-02-09T05:12:20.928Z,-5.74
2023-02-09T05:14:22.515Z,-5.62
2023-02-09T05:16:24.150Z,-5.51
2023-02-09T05:18:25.976Z,-5.44
2023-02-09T05:20:27.596Z,-5.39
2023-02-09T05:22:29.290Z,-5.35
2023-02-09T05:24:31.021Z,-5.29
2023-02-09T05:26:32.641Z,-5.27
2023-02-09T05:28:34.378Z,-5.30
2023-02-09T05:30:35.978Z,-5.31
2023-02-09T05:32:37.603Z,-5.29
2023-02-09T05:34:39.227Z,-5.26
2023-02-09T05:36:40.801Z,-5.26
2023-02-09T05:38:42.480Z,-5.22
2023-02-09T05:40:45.218Z,-5.15
2023-02-09T05:42:47.055Z,-5.11
2023-02-09T05:44:50.301Z,-5.05
2023-02-09T05:46:51.926Z,-5.08
2023-02-09T05:48:53.583Z,-5.02
2023-02-09T05:50:55.199Z,-4.92
2023-02-09T05:53:00.122Z,-4.85
2023-02-09T05:55:01.762Z,-4.84
2023-02-09T05:57:03.651Z,-4.83
2023-02-09T05:59:05.393Z,-4.76
2023-02-09T06:01:06.952Z,-4.72
2023-02-09T06:03:08.660Z,-4.72
2023-02-09T06:05:10.549Z,-4.73
2023-02-09T06:07:12.215Z,-4.77
2023-02-09T06:09:13.935Z,-4.72
2023-02-09T06:11:15.602Z,-4.71
2023-02-09T06:13:17.230Z,-4.63
2023-02-09T06:15:18.960Z,-4.60
2023-02-09T06:17:20.615Z,-4.55
2023-02-09T06:19:22.286Z,-4.51
2023-02-09T06:21:24.149Z,-4.42
2023-02-09T06:23:25.752Z,-4.30
2023-02-09T06:25:27.441Z,-4.36
2023-02-09T06:27:29.079Z,-4.30
2023-02-09T06:29:31.484Z,-4.26
2023-02-09T06:31:34.064Z,-4.20
2023-02-09T06:33:37.127Z,-4.13
2023-02-09T06:35:38.836Z,-4.09
2023-02-09T06:37:40.419Z,-4.13
2023-02-09T06:39:42.036Z,-4.18
2023-02-09T06:41:43.690Z,-4.27
2023-02-09T06:43:45.339Z,-4.25
2023-02-09T06:45:46.968Z,-4.20
2023-02-09T06:47:48.640Z,-4.16
2023-02-09T06:49:50.217Z,-4.20
2023-02-09T06:51:52.157Z,-4.39
2023-02-09T06:53:54.235Z,-4.37
2023-02-09T06:56:01.522Z,-4.36
2023-02-09T06:58:03.771Z,-4.34
2023-02-09T07:00:08.647Z,-4.34
2023-02-09T07:02:10.969Z,-4.36
2023-02-09T07:04:12.564Z,-4.22
2023-02-09T07:06:16.705Z,-4.07
2023-02-09T07:08:18.352Z,-3.89
2023-02-09T07:10:20.138Z,-3.72
2023-02-09T07:12:21.788Z,-3.96
2023-02-09T07:14:23.397Z,-3.91
2023-02-09T07:16:25.069Z,-4.26
2023-02-09T07:18:27.678Z,-4.34
2023-02-09T07:20:29.331Z,-4.49
2023-02-09T07:22:31.055Z,-4.47
2023-02-09T07:24:32.684Z,-4.32
2023-02-09T07:26:34.327Z,-4.41
2023-02-09T07:28:36.656Z,-4.29
2023-02-09T07:30:41.200Z,-4.23
2023-02-09T07:32:43.025Z,-4.29
2023-02-09T07:34:44.635Z,-4.26
2023-02-09T07:36:47.750Z,-4.04
2023-02-09T07:38:49.800Z,-3.91
2023-02-09T07:40:51.779Z,-3.97
2023-02-09T07:42:53.438Z,-4.02
2023-02-09T07:44:55.158Z,-3.84
2023-02-09T07:46:56.816Z,-3.69
2023-02-09T07:49:01.107Z,-3.52
2023-02-09T07:51:03.735Z,-3.58
2023-02-09T07:53:05.353Z,-4.01
2023-02-09T07:55:07.422Z,-4.12
2023-02-09T07:57:09.038Z,-4.05
2023-02-09T07:59:11.464Z,-3.98
2023-02-09T08:01:14.408Z,-3.79
2023-02-09T08:03:18.552Z,-3.51
2023-02-09T08:05:28.444Z,-3.25
2023-02-09T08:07:30.394Z,-2.98
2023-02-09T08:09:32.004Z,-2.84
2023-02-09T08:11:46.055Z,-2.58
2023-02-09T08:13:48.105Z,-2.66
2023-02-09T08:15:54.585Z,-2.51
2023-02-09T08:17:57.906Z,-2.28
2023-02-09T08:20:03.548Z,-2.00
2023-02-09T08:22:05.116Z,-1.88
2023-02-09T08:24:08.093Z,-1.94
2023-02-09T08:26:11.881Z,-1.83
2023-02-09T08:28:13.493Z,-2.09
2023-02-09T08:30:17.116Z,-2.39
2023-02-09T08:32:18.751Z,-2.49
2023-02-09T08:34:20.391Z,-2.23
2023-02-09T08:36:22.065Z,-2.00
2023-02-09T08:38:23.650Z,-1.89
2023-02-09T08:40:25.271Z,-2.32
2023-02-09T08:42:26.962Z,-2.34
2023-02-09T08:44:28.545Z,-2.36
2023-02-09T08:46:30.365Z,-2.11
2023-02-09T08:48:35.673Z,-1.87
2023-02-09T08:50:38.494Z,-1.61
2023-02-09T08:52:40.580Z,-1.95
2023-02-09T08:54:42.240Z,-2.21
2023-02-09T08:56:44.302Z,-2.14
2023-02-09T08:58:45.919Z,-2.16
2023-02-09T09:00:47.590Z,-1.98
2023-02-09T09:02:49.254Z,-2.44
2023-02-09T09:04:50.894Z,-2.31
2023-02-09T09:06:52.478Z,-1.90
2023-02-09T09:08:54.170Z,-1.66
2023-02-09T09:10:56.096Z,-1.35
2023-02-09T09:12:58.907Z,-1.11
2023-02-09T09:15:00.759Z,-1.16
2023-02-09T09:17:02.392Z,-1.58
2023-02-09T09:19:05.148Z,-1.59
2023-02-09T09:21:06.848Z,-1.43
2023-02-09T09:23:09.148Z,-1.25
2023-02-09T09:25:10.929Z,-0.98
2023-02-09T09:27:12.592Z,-0.61
2023-02-09T09:29:14.159Z,-0.71
2023-02-09T09:31:18.914Z,-0.68
2023-02-09T09:33:20.543Z,-0.87
2023-02-09T09:35:22.310Z,-0.57
2023-02-09T09:37:25.319Z,-0.25
2023-02-09T09:39:26.986Z,-0.70
2023-02-09T09:41:29.940Z,-0.82
2023-02-09T09:43:37.088Z,-1.09
2023-02-09T09:45:39.038Z,-1.22
2023-02-09T09:47:42.223Z,-1.39
2023-02-09T09:49:44.121Z,-1.29
2023-02-09T09:52:11.869Z,-1.08
2023-02-09T09:54:25.241Z,-1.54
2023-02-09T09:56:29.726Z,-1.64
2023-02-09T09:58:33.125Z,-1.40
2023-02-09T10:00:41.479Z,-0.97
2023-02-09T10:02:44.490Z,-0.94
2023-02-09T10:04:47.852Z,-0.86
2023-02-09T10:06:58.337Z,-0.79
2023-02-09T10:09:06.472Z,-1.06
2023-02-09T10:11:16.715Z,-0.80
2023-02-09T10:13:22.340Z,-0.43
2023-02-09T10:15:33.543Z,-0.30
2023-02-09T10:17:35.148Z,-0.11
2023-02-09T10:19:36.772Z,0.07
2023-02-09T10:21:38.522Z,0.37
2023-02-09T10:23:46.019Z,0.29
2023-02-09T10:25:59.657Z,0.25
2023-02-09T10:28:06.372Z,0.18
2023-02-09T10:30:19.371Z,0.09
2023-02-09T10:32:23.736Z,-0.35
2023-02-09T10:34:37.382Z,-0.22
2023-02-09T10:37:18.006Z,-0.13
2023-02-09T10:39:30.908Z,-0.66
2023-02-09T10:41:34.134Z,-0.82
2023-02-09T10:43:35.895Z,-0.60
2023-02-09T10:45:39.922Z,-0.57
2023-02-09T10:47:41.963Z,-0.68
2023-02-09T10:49:43.547Z,-0.46
2023-02-09T10:51:45.192Z,-0.58
2023-02-09T10:53:55.976Z,-0.57
2023-02-09T10:56:19.027Z,-0.48
2023-02-09T10:58:27.014Z,-0.37
2023-02-09T11:00:32.322Z,-0.14
2023-02-09T11:02:36.203Z,-0.31
2023-02-09T11:04:57.530Z,-0.32
2023-02-09T11:07:01.526Z,0.08
2023-02-09T11:09:12.861Z,0.34
2023-02-09T11:11:23.737Z,0.13
2023-02-09T11:13:26.424Z,0.08
2023-02-09T11:15:34.483Z,0.44
2023-02-09T11:17:46.464Z,0.65
2023-02-09T11:19:48.065Z,0.30
2023-02-09T11:22:11.064Z,0.38
2023-02-09T11:24:37.446Z,0.65
2023-02-09T11:26:39.535Z,0.80
2023-02-09T11:28:59.650Z,0.70
2023-02-09T11:31:39.820Z,1.19
2023-02-09T11:34:05.087Z,1.37
2023-02-09T11:36:42.030Z,1.29
2023-02-09T11:38:53.298Z,0.88
2023-02-09T11:40:56.712Z,0.82
2023-02-09T11:43:10.141Z,0.89
2023-02-09T11:45:19.647Z,1.09
2023-02-09T11:47:27.204Z,1.27
2023-02-09T11:49:30.228Z,1.58
2023-02-09T11:51:34.939Z,1.76
2023-02-09T11:53:45.692Z,1.60
2023-02-09T11:55:49.372Z,1.70
2023-02-09T11:57:56.949Z,1.53
2023-02-09T11:59:59.309Z,1.42
2023-02-09T12:02:38.296Z,1.75
2023-02-09T12:04:59.608Z,0.98
2023-02-09T12:07:03.621Z,0.67
2023-02-09T12:09:15.189Z,0.89
2023-02-09T12:11:48.118Z,1.21
2023-02-09T12:14:04.674Z,1.40
2023-02-09T12:16:18.591Z,1.43
2023-02-09T12:18:23.413Z,1.12
2023-02-09T12:20:44.511Z,1.11
2023-02-09T12:23:01.270Z,1.07
2023-02-09T12:25:11.769Z,1.16
2023-02-09T12:27:25.688Z,1.20
2023-02-09T12:29:30.102Z,1.20
2023-02-09T12:32:00.393Z,1.34
2023-02-09T12:34:10.479Z,1.64
2023-02-09T12:36:16.975Z,1.71
2023-02-09T12:38:19.687Z,1.79
2023-02-09T12:40:23.824Z,1.60
2023-02-09T12:42:30.732Z,1.59
2023-02-09T12:44:32.309Z,1.52
2023-02-09T12:46:47.717Z,1.62
2023-02-09T12:49:01.489Z,1.73
2023-02-09T12:51:03.132Z,1.63
2023-02-09T12:53:31.522Z,1.64
2023-02-09T12:55:33.264Z,1.73
2023-02-09T12:57:51.159Z,1.58
2023-02-09T12:59:52.748Z,1.52
2023-02-09T13:02:07.296Z,1.52
2023-02-09T13:04:09.122Z,1.62
2023-02-09T13:06:27.433Z,1.71
2023-02-09T13:08:35.103Z,1.77
2023-02-09T13:10:44.432Z,1.86
2023-02-09T13:12:50.880Z,1.94
2023-02-09T13:14:52.532Z,1.85
2023-02-09T13:17:09.300Z,1.85
2023-02-09T13:19:47.388Z,1.59
2023-02-09T13:22:19.806Z,1.38
2023-02-09T13:24:46.867Z,1.35
2023-02-09T13:26:51.542Z,1.44
2023-02-09T13:29:29.693Z,1.23
2023-02-09T13:31:36.748Z,1.25
2023-02-09T13:34:00.835Z,1.40
2023-02-09T13:36:48.711Z,1.37
2023-02-09T13:38:50.835Z,1.48
2023-02-09T13:40:52.584Z,1.47
2023-02-09T13:43:17.637Z,1.47
2023-02-09T13:45:19.731Z,1.47
2023-02-09T13:47:21.896Z,1.49
2023-02-09T13:49:25.425Z,1.61
2023-02-09T13:51:27.043Z,1.72
2023-02-09T13:53:30.266Z,1.57
2023-02-09T13:55:32.044Z,1.57
2023-02-09T13:57:38.729Z,1.51
2023-02-09T13:59:41.785Z,1.65
2023-02-09T14:01:46.338Z,1.68
2023-02-09T14:03:58.565Z,1.75
2023-02-09T14:06:01.908Z,1.75
2023-02-09T14:08:03.767Z,1.55
2023-02-09T14:10:16.991Z,1.52
2023-02-09T14:12:42.363Z,1.60
2023-02-09T14:15:09.531Z,1.74
2023-02-09T14:17:24.419Z,1.55
2023-02-09T14:19:30.776Z,1.48
2023-02-09T14:21:37.491Z,1.54
2023-02-09T14:23:50.202Z,1.57
2023-02-09T14:26:15.209Z,1.67
2023-02-09T14:28:16.855Z,1.73
2023-02-09T14:30:32.112Z,1.73
2023-02-09T14:32:40.451Z,1.82
2023-02-09T14:34:42.859Z,1.86
2023-02-09T14:36:54.999Z,1.79
2023-02-09T14:39:16.882Z,1.73
2023-02-09T14:41:28.152Z,1.56
2023-02-09T14:43:29.917Z,1.56
2023-02-09T14:45:37.637Z,1.58
2023-02-09T14:47:44.080Z,0.95
2023-02-09T14:49:45.663Z,0.68
2023-02-09T14:51:48.746Z,0.50
2023-02-09T14:53:50.536Z,0.34
2023-02-09T14:55:54.242Z,0.10
2023-02-09T14:57:55.952Z,0.05
2023-02-09T14:59:57.579Z,0.12
2023-02-09T15:01:59.236Z,-0.12
2023-02-09T15:04:00.815Z,-0.09
2023-02-09T15:06:04.155Z,-0.42
2023-02-09T15:08:09.049Z,-0.34
2023-02-09T15:10:31.969Z,-0.31
2023-02-09T15:12:33.684Z,-0.41
2023-02-09T15:14:42.494Z,-0.43
2023-02-09T15:16:44.030Z,-0.39
2023-02-09T15:18:45.689Z,-0.40
2023-02-09T15:20:47.447Z,-0.42
2023-02-09T15:22:49.118Z,-0.46
2023-02-09T15:24:54.334Z,-0.52
2023-02-09T15:26:56.328Z,-0.49
2023-02-09T15:28:57.912Z,-0.38
2023-02-09T15:30:59.943Z,-0.29
2023-02-09T15:33:02.088Z,-0.30
2023-02-09T15:35:05.192Z,-0.39
2023-02-09T15:37:06.937Z,-0.38
2023-02-09T15:39:19.203Z,-0.30
2023-02-09T15:41:44.080Z,-0.28
2023-02-09T15:44:03.957Z,-0.47
2023-02-09T15:46:06.459Z,-0.55
2023-02-09T15:48:09.109Z,-0.53
2023-02-09T15:50:10.737Z,-0.71
2023-02-09T15:52:13.513Z,-0.73
2023-02-09T15:54:18.844Z,-0.87
2023-02-09T15:56:20.651Z,-0.94
2023-02-09T15:58:29.086Z,-1.22
2023-02-09T16:00:31.432Z,-1.39
2023-02-09T16:02:33.116Z,-1.41
2023-02-09T16:04:34.755Z,-1.69
2023-02-09T16:06:36.596Z,-1.65
2023-02-09T16:08:38.726Z,-1.77
2023-02-09T16:10:40.398Z,-1.70
2023-02-09T16:12:42.197Z,-1.62
2023-02-09T16:14:43.921Z,-1.59
2023-02-09T16:16:45.962Z,-1.73
2023-02-09T16:18:47.741Z,-1.73
2023-02-09T16:20:50.904Z,-1.83
2023-02-09T16:22:52.893Z,-1.73
2023-02-09T16:24:54.654Z,-1.74
2023-02-09T16:26:58.655Z,-1.61
2023-02-09T16:29:00.788Z,-1.52
2023-02-09T16:31:02.535Z,-1.50
2023-02-09T16:33:04.689Z,-1.66
2023-02-09T16:35:16.388Z,-1.72
2023-02-09T16:37:25.184Z,-1.70
2023-02-09T16:39:26.759Z,-1.57
2023-02-09T16:41:47.141Z,-1.43
2023-02-09T16:43:48.704Z,-1.31
2023-02-09T16:46:02.703Z,-1.38
2023-02-09T16:48:05.238Z,-1.40
2023-02-09T16:50:46.832Z,-1.44
2023-02-09T16:52:50.220Z,-1.66
2023-02-09T16:55:02.018Z,-1.74
2023-02-09T16:57:04.423Z,-1.74
2023-02-09T16:59:06.071Z,-1.75
2023-02-09T17:01:16.985Z,-1.65
2023-02-09T17:03:22.358Z,-1.58
2023-02-09T17:05:29.705Z,-1.50
2023-02-09T17:07:45.352Z,-1.40
2023-02-09T17:09:57.216Z,-1.45
2023-02-09T17:11:58.773Z,-1.65
2023-02-09T17:14:00.436Z,-1.71
2023-02-09T17:16:04.359Z,-1.72
2023-02-09T17:18:06.564Z,-1.64
2023-02-09T17:20:10.471Z,-1.53
2023-02-09T17:22:11.950Z,-1.59
2023-02-09T17:24:15.898Z,-1.63
2023-02-09T17:26:18.469Z,-1.68
2023-02-09T17:28:20.199Z,-1.67
2023-02-09T17:30:21.844Z,-1.62
2023-02-09T17:32:23.556Z,-1.62
2023-02-09T17:34:28.454Z,-1.55
2023-02-09T17:36:31.012Z,-1.47
2023-02-09T17:38:35.872Z,-1.40
2023-02-09T17:40:37.471Z,-1.43
2023-02-09T17:42:39.154Z,-1.42
2023-02-09T17:44:46.330Z,-1.38
2023-02-09T17:46:48.664Z,-1.31
2023-02-09T17:48:50.386Z,-1.29
2023-02-09T17:50:53.002Z,-1.24
2023-02-09T17:52:54.766Z,-1.20
2023-02-09T17:54:56.409Z,-1.16
2023-02-09T17:56:58.130Z,-1.26
2023-02-09T17:59:03.089Z,-1.35
2023-02-09T18:01:21.668Z,-1.32
2023-02-09T18:03:26.031Z,-1.33
2023-02-09T18:05:28.405Z,-1.29
2023-02-09T18:07:30.299Z,-1.25
2023-02-09T18:09:31.919Z,-1.22
2023-02-09T18:12:03.028Z,-1.19
2023-02-09T18:14:04.916Z,-1.18
2023-02-09T18:16:07.692Z,-1.23
2023-02-09T18:18:09.802Z,-1.33
2023-02-09T18:20:16.447Z,-1.39
2023-02-09T18:22:19.908Z,-1.43
2023-02-09T18:24:22.980Z,-1.40
2023-02-09T18:26:24.623Z,-1.37
2023-02-09T18:28:26.274Z,-1.36
2023-02-09T18:30:30.844Z,-1.34
2023-02-09T18:32:32.495Z,-1.35
2023-02-09T18:34:35.927Z,-1.40
2023-02-09T18:36:37.599Z,-1.37
2023-02-09T18:38:39.326Z,-1.46
2023-02-09T18:40:41.003Z,-1.76
2023-02-09T18:42:43.358Z,-2.06
2023-02-09T18:44:45.057Z,-2.14
2023-02-09T18:46:46.687Z,-2.19
2023-02-09T18:48:48.304Z,-2.13
2023-02-09T18:50:49.953Z,-2.02
2023-02-09T18:52:54.152Z,-1.88
2023-02-09T18:54:55.787Z,-1.78
2023-02-09T18:56:57.445Z,-1.73
2023-02-09T18:58:59.080Z,-1.65
2023-02-09T19:01:00.688Z,-1.58
2023-02-09T19:03:02.359Z,-1.57
2023-02-09T19:05:04.609Z,-1.52
2023-02-09T19:07:09.469Z,-1.49
2023-02-09T19:09:11.236Z,-1.46
2023-02-09T19:11:14.208Z,-1.44
2023-02-09T19:13:15.819Z,-1.43
2023-02-09T19:15:18.745Z,-1.43
2023-02-09T19:17:21.305Z,-1.47
2023-02-09T19:19:23.139Z,-1.46
2023-02-09T19:21:24.872Z,-1.48
2023-02-09T19:23:26.463Z,-1.45
2023-02-09T19:25:28.778Z,-1.42
2023-02-09T19:27:30.493Z,-1.45
2023-02-09T19:29:33.246Z,-1.46
2023-02-09T19:31:34.889Z,-1.47
2023-02-09T19:33:36.499Z,-1.48
2023-02-09T19:35:38.122Z,-1.50
2023-02-09T19:37:42.028Z,-1.56
2023-02-09T19:39:52.705Z,-1.67
2023-02-09T19:41:54.545Z,-1.65
2023-02-09T19:43:57.241Z,-1.63
2023-02-09T19:45:59.333Z,-1.64
2023-02-09T19:48:00.972Z,-1.69
2023-02-09T19:50:02.661Z,-1.70
2023-02-09T19:52:05.023Z,-1.70
2023-02-09T19:54:06.682Z,-1.72
2023-02-09T19:56:15.886Z,-1.69
2023-02-09T19:58:17.554Z,-1.70
2023-02-09T20:00:19.396Z,-1.72
2023-02-09T20:02:21.015Z,-1.81
2023-02-09T20:04:22.953Z,-1.86
2023-02-09T20:06:24.740Z,-1.89
2023-02-09T20:08:26.592Z,-1.94
2023-02-09T20:10:28.265Z,-1.97
2023-02-09T20:12:29.813Z,-2.03
2023-02-09T20:14:33.520Z,-2.02
2023-02-09T20:16:35.822Z,-1.99
2023-02-09T20:18:37.872Z,-1.98
2023-02-09T20:20:42.955Z,-1.97
2023-02-09T20:22:44.793Z,-1.98
2023-02-09T20:24:46.536Z,-1.97
2023-02-09T20:26:48.267Z,-2.02
2023-02-09T20:28:50.558Z,-2.06
2023-02-09T20:30:52.181Z,-2.08
2023-02-09T20:32:53.830Z,-2.14
2023-02-09T20:34:55.664Z,-2.14
2023-02-09T20:36:57.649Z,-2.18
2023-02-09T20:38:59.251Z,-2.15
2023-02-09T20:41:00.923Z,-2.13
2023-02-09T20:43:21.022Z,-2.15
2023-02-09T20:45:41.405Z,-2.12
2023-02-09T20:47:43.110Z,-2.20
2023-02-09T20:49:44.885Z,-2.18
2023-02-09T20:51:46.910Z,-2.19
2023-02-09T20:53:48.501Z,-2.17
2023-02-09T20:55:50.103Z,-2.19
2023-02-09T20:57:51.706Z,-2.15
2023-02-09T20:59:53.359Z,-2.17
2023-02-09T21:01:55.035Z,-2.21
2023-02-09T21:03:58.851Z,-2.22
2023-02-09T21:06:00.515Z,-2.27
2023-02-09T21:08:04.611Z,-2.25
2023-02-09T21:10:07.164Z,-2.29
2023-02-09T21:12:08.750Z,-2.29
2023-02-09T21:14:21.637Z,-2.28
2023-02-09T21:16:32.487Z,-2.25
2023-02-09T21:18:36.094Z,-2.23
2023-02-09T21:20:38.124Z,-2.23
2023-02-09T21:22:39.779Z,-2.21
2023-02-09T21:24:41.979Z,-2.20
2023-02-09T21:26:43.878Z,-2.18
2023-02-09T21:28:48.309Z,-2.16
2023-02-09T21:30:50.237Z,-2.18
2023-02-09T21:32:51.948Z,-2.30
2023-02-09T21:34:53.544Z,-2.38
2023-02-09T21:36:55.136Z,-2.39
2023-02-09T21:38:56.776Z,-2.39
2023-02-09T21:40:58.421Z,-2.39
2023-02-09T21:43:00.306Z,-2.37
2023-02-09T21:45:01.962Z,-2.39
2023-02-09T21:47:03.678Z,-2.42
2023-02-09T21:49:05.339Z,-2.42
2023-02-09T21:51:07.044Z,-2.41
2023-02-09T21:53:08.666Z,-2.64
2023-02-09T21:55:10.415Z,-2.76
2023-02-09T21:57:12.008Z,-2.77
2023-02-09T21:59:13.585Z,-2.75
2023-02-09T22:01:15.199Z,-2.78
2023-02-09T22:03:16.869Z,-2.82
2023-02-09T22:05:18.534Z,-2.80
2023-02-09T22:07:20.121Z,-2.80
2023-02-09T22:09:23.157Z,-2.73
2023-02-09T22:11:24.738Z,-2.75
2023-02-09T22:13:26.415Z,-2.75
2023-02-09T22:15:28.071Z,-2.80
2023-02-09T22:17:29.770Z,-2.79
2023-02-09T22:19:31.432Z,-2.80
2023-02-09T22:21:33.081Z,-2.77
2023-02-09T22:23:34.907Z,-2.73
2023-02-09T22:25:36.657Z,-2.74
2023-02-09T22:27:38.305Z,-2.74
2023-02-09T22:29:39.965Z,-2.69
2023-02-09T22:31:42.168Z,-2.69
2023-02-09T22:33:44.037Z,-2.71
2023-02-09T22:35:46.011Z,-2.76
2023-02-09T22:37:47.777Z,-2.78
2023-02-09T22:39:49.430Z,-2.77
2023-02-09T22:41:51.037Z,-2.79
2023-02-09T22:43:54.809Z,-2.81
2023-02-09T22:45:57.029Z,-2.84
2023-02-09T22:47:58.671Z,-2.88
2023-02-09T22:50:00.390Z,-2.93
2023-02-09T22:52:01.982Z,-2.98
2023-02-09T22:54:04.773Z,-3.06
2023-02-09T22:56:07.982Z,-3.40
2023-02-09T22:58:09.609Z,-3.45
2023-02-09T23:00:12.311Z,-3.45
2023-02-09T23:02:13.900Z,-3.48
2023-02-09T23:04:15.687Z,-3.58
2023-02-09T23:06:20.245Z,-3.57
2023-02-09T23:08:23.117Z,-3.59
2023-02-09T23:10:25.106Z,-3.55
2023-02-09T23:12:26.721Z,-3.44
2023-02-09T23:14:28.408Z,-3.40
2023-02-09T23:16:30.693Z,-3.35
2023-02-09T23:18:32.265Z,-3.34
2023-02-09T23:20:33.952Z,-3.30
2023-02-09T23:22:35.572Z,-3.23
2023-02-09T23:24:37.224Z,-3.24
2023-02-09T23:26:39.255Z,-3.26
2023-02-09T23:28:41.005Z,-3.26
2023-02-09T23:30:42.687Z,-3.22
2023-02-09T23:32:44.379Z,-3.22
2023-02-09T23:34:46.000Z,-3.26
2023-02-09T23:36:47.731Z,-3.27
2023-02-09T23:38:53.874Z,-3.30
2023-02-09T23:40:55.479Z,-3.26
2023-02-09T23:42:57.122Z,-3.28
2023-02-09T23:44:58.910Z,-3.30
2023-02-09T23:47:00.601Z,-3.31
2023-02-09T23:49:02.237Z,-3.31
2023-02-09T23:51:15.546Z,-3.35
2023-02-09T23:53:17.178Z,-3.39
2023-02-09T23:55:18.932Z,-3.48
2023-02-09T23:57:23.444Z,-3.51
2023-02-09T23:59:25.057Z,-3.47
